Foraker, Oklahoma
Current Conditions -  °F | °C
As of 4:53 AM on Thursday 23 Oct 2014 (Local Time) from KPNC Reporting Station
Haze Haze  
Wind Chill: 63°   Ceiling: 10000
Heat Index: 63°   Visibility: 6mi
Dew Point: 61°   Wind: 12mph
Humidity: 93%   Direction: 150°SSE
Pressure: 30.08"   Gusts: NA
Location:  36.8783°N, 96.6155°W
Report Text: KPNC 230953Z AUTO 15010KT 6SM BR FEW009 OVC100 17/16 A3008 RMK AO2 SLP178 T01720161
Loading
Personal Weather Stations






























Interactive Weather Map
Tropical Storm Tracking
New forecast layout! Learn more

10-Day Weather Forecast

Advertisements
Track Severe Weather on mobile